sensor_id;sensor_type;location;lat;lon;timestamp;P1;durP1;ratioP1;P2;durP2;ratioP2
14945;SDS011;7567;50.916;6.900;2022-10-30T00:00:18;12.05;;;6.60;;
14945;SDS011;7567;50.916;6.900;2022-10-30T00:02:47;11.05;;;6.57;;
14945;SDS011;7567;50.916;6.900;2022-10-30T00:05:13;8.52;;;6.45;;
14945;SDS011;7567;50.916;6.900;2022-10-30T00:07:39;9.57;;;6.65;;
14945;SDS011;7567;50.916;6.900;2022-10-30T00:10:06;9.98;;;6.93;;
14945;SDS011;7567;50.916;6.900;2022-10-30T00:12:32;9.05;;;5.85;;
14945;SDS011;7567;50.916;6.900;2022-10-30T00:14:58;12.73;;;6.80;;
14945;SDS011;7567;50.916;6.900;2022-10-30T00:17:24;15.23;;;7.15;;
14945;SDS011;7567;50.916;6.900;2022-10-30T00:19:50;11.85;;;6.88;;
14945;SDS011;7567;50.916;6.900;2022-10-30T00:22:16;11.07;;;7.13;;
14945;SDS011;7567;50.916;6.900;2022-10-30T00:24:42;15.82;;;7.28;;
14945;SDS011;7567;50.916;6.900;2022-10-30T00:27:08;9.95;;;7.25;;
14945;SDS011;7567;50.916;6.900;2022-10-30T00:29:34;13.05;;;6.47;;
14945;SDS011;7567;50.916;6.900;2022-10-30T00:32:00;12.50;;;6.57;;
14945;SDS011;7567;50.916;6.900;2022-10-30T00:34:26;15.25;;;6.97;;
14945;SDS011;7567;50.916;6.900;2022-10-30T00:36:52;11.15;;;7.15;;
14945;SDS011;7567;50.916;6.900;2022-10-30T00:39:17;7.80;;;5.80;;
14945;SDS011;7567;50.916;6.900;2022-10-30T00:41:43;11.57;;;7.57;;
14945;SDS011;7567;50.916;6.900;2022-10-30T00:47:04;13.13;;;6.72;;
14945;SDS011;7567;50.916;6.900;2022-10-30T00:49:33;12.23;;;7.20;;
14945;SDS011;7567;50.916;6.900;2022-10-30T00:52:02;7.70;;;6.45;;
14945;SDS011;7567;50.916;6.900;2022-10-30T00:54:31;11.35;;;6.78;;
14945;SDS011;7567;50.916;6.900;2022-10-30T00:56:58;8.50;;;6.50;;
14945;SDS011;7567;50.916;6.900;2022-10-30T00:59:27;12.95;;;7.18;;
14945;SDS011;7567;50.916;6.900;2022-10-30T01:01:57;8.38;;;6.47;;
14945;SDS011;7567;50.916;6.900;2022-10-30T01:04:24;13.75;;;6.85;;
14945;SDS011;7567;50.916;6.900;2022-10-30T01:06:51;13.50;;;7.45;;
14945;SDS011;7567;50.916;6.900;2022-10-30T01:09:18;12.07;;;7.38;;
14945;SDS011;7567;50.916;6.900;2022-10-30T01:11:45;13.00;;;6.22;;
14945;SDS011;7567;50.916;6.900;2022-10-30T01:14:11;7.97;;;6.05;;
14945;SDS011;7567;50.916;6.900;2022-10-30T01:19:41;10.20;;;6.35;;
14945;SDS011;7567;50.916;6.900;2022-10-30T01:25:20;12.05;;;6.53;;
14945;SDS011;7567;50.916;6.900;2022-10-30T01:36:20;12.63;;;6.78;;
14945;SDS011;7567;50.916;6.900;2022-10-30T01:39:12;10.20;;;6.50;;
14945;SDS011;7567;50.916;6.900;2022-10-30T01:41:49;9.60;;;5.90;;
14945;SDS011;7567;50.916;6.900;2022-10-30T01:44:23;9.07;;;6.18;;
14945;SDS011;7567;50.916;6.900;2022-10-30T01:52:24;9.63;;;6.43;;
14945;SDS011;7567;50.916;6.900;2022-10-30T01:55:08;7.82;;;6.30;;
14945;SDS011;7567;50.916;6.900;2022-10-30T02:00:23;12.65;;;6.65;;
14945;SDS011;7567;50.916;6.900;2022-10-30T02:02:50;7.28;;;5.78;;
14945;SDS011;7567;50.916;6.900;2022-10-30T02:05:35;9.77;;;6.60;;
14945;SDS011;7567;50.916;6.900;2022-10-30T02:08:05;10.63;;;5.70;;
14945;SDS011;7567;50.916;6.900;2022-10-30T02:10:32;13.00;;;6.88;;
14945;SDS011;7567;50.916;6.900;2022-10-30T02:13:00;12.60;;;7.28;;
14945;SDS011;7567;50.916;6.900;2022-10-30T02:15:26;17.65;;;7.20;;
14945;SDS011;7567;50.916;6.900;2022-10-30T02:17:53;12.90;;;6.75;;
14945;SDS011;7567;50.916;6.900;2022-10-30T02:20:20;13.25;;;6.95;;
14945;SDS011;7567;50.916;6.900;2022-10-30T02:22:46;15.82;;;7.25;;
14945;SDS011;7567;50.916;6.900;2022-10-30T02:25:13;14.82;;;6.90;;
14945;SDS011;7567;50.916;6.900;2022-10-30T02:27:40;11.27;;;6.43;;
14945;SDS011;7567;50.916;6.900;2022-10-30T02:30:06;13.68;;;6.45;;
14945;SDS011;7567;50.916;6.900;2022-10-30T02:32:33;11.52;;;6.95;;
14945;SDS011;7567;50.916;6.900;2022-10-30T02:34:59;10.10;;;6.65;;
14945;SDS011;7567;50.916;6.900;2022-10-30T02:37:25;9.13;;;6.43;;
14945;SDS011;7567;50.916;6.900;2022-10-30T02:39:51;14.07;;;6.28;;
14945;SDS011;7567;50.916;6.900;2022-10-30T02:42:17;11.70;;;6.57;;
14945;SDS011;7567;50.916;6.900;2022-10-30T02:44:44;10.02;;;6.78;;
14945;SDS011;7567;50.916;6.900;2022-10-30T02:47:09;9.55;;;6.88;;
14945;SDS011;7567;50.916;6.900;2022-10-30T02:49:36;13.05;;;6.57;;
14945;SDS011;7567;50.916;6.900;2022-10-30T02:52:02;11.90;;;6.07;;
14945;SDS011;7567;50.916;6.900;2022-10-30T02:54:28;10.82;;;6.88;;
14945;SDS011;7567;50.916;6.900;2022-10-30T02:56:54;10.73;;;6.65;;
14945;SDS011;7567;50.916;6.900;2022-10-30T02:59:19;9.82;;;6.03;;
14945;SDS011;7567;50.916;6.900;2022-10-30T03:01:45;13.77;;;6.35;;
14945;SDS011;7567;50.916;6.900;2022-10-30T03:04:11;12.80;;;6.53;;
14945;SDS011;7567;50.916;6.900;2022-10-30T03:06:37;10.82;;;6.85;;
14945;SDS011;7567;50.916;6.900;2022-10-30T03:09:03;12.05;;;6.13;;
14945;SDS011;7567;50.916;6.900;2022-10-30T03:11:29;12.60;;;7.90;;
14945;SDS011;7567;50.916;6.900;2022-10-30T03:13:55;14.80;;;6.97;;
14945;SDS011;7567;50.916;6.900;2022-10-30T03:16:22;10.77;;;6.55;;
14945;SDS011;7567;50.916;6.900;2022-10-30T03:18:50;13.80;;;6.85;;
14945;SDS011;7567;50.916;6.900;2022-10-30T03:21:17;11.80;;;6.80;;
14945;SDS011;7567;50.916;6.900;2022-10-30T03:23:44;11.52;;;6.85;;
14945;SDS011;7567;50.916;6.900;2022-10-30T03:26:11;9.82;;;7.05;;
14945;SDS011;7567;50.916;6.900;2022-10-30T03:28:37;12.07;;;6.28;;
14945;SDS011;7567;50.916;6.900;2022-10-30T03:31:07;10.60;;;6.90;;
14945;SDS011;7567;50.916;6.900;2022-10-30T03:33:35;14.90;;;7.15;;
14945;SDS011;7567;50.916;6.900;2022-10-30T03:36:02;15.13;;;8.02;;
14945;SDS011;7567;50.916;6.900;2022-10-30T03:38:29;14.40;;;7.57;;
14945;SDS011;7567;50.916;6.900;2022-10-30T03:40:56;11.98;;;7.53;;
14945;SDS011;7567;50.916;6.900;2022-10-30T03:43:22;12.02;;;6.88;;
14945;SDS011;7567;50.916;6.900;2022-10-30T03:45:49;11.48;;;6.95;;
14945;SDS011;7567;50.916;6.900;2022-10-30T03:48:17;9.43;;;7.25;;
14945;SDS011;7567;50.916;6.900;2022-10-30T03:50:45;13.82;;;8.25;;
14945;SDS011;7567;50.916;6.900;2022-10-30T03:53:11;13.00;;;6.50;;
14945;SDS011;7567;50.916;6.900;2022-10-30T03:55:38;9.90;;;7.13;;
14945;SDS011;7567;50.916;6.900;2022-10-30T03:58:05;9.98;;;7.35;;
14945;SDS011;7567;50.916;6.900;2022-10-30T04:00:32;8.88;;;6.70;;
14945;SDS011;7567;50.916;6.900;2022-10-30T04:02:58;7.38;;;6.45;;
14945;SDS011;7567;50.916;6.900;2022-10-30T04:05:25;13.75;;;7.10;;
14945;SDS011;7567;50.916;6.900;2022-10-30T04:07:56;12.60;;;7.28;;
14945;SDS011;7567;50.916;6.900;2022-10-30T04:10:22;10.73;;;6.25;;
14945;SDS011;7567;50.916;6.900;2022-10-30T04:12:49;12.88;;;7.15;;
14945;SDS011;7567;50.916;6.900;2022-10-30T04:15:15;9.77;;;6.70;;
14945;SDS011;7567;50.916;6.900;2022-10-30T04:17:50;10.68;;;7.43;;
14945;SDS011;7567;50.916;6.900;2022-10-30T04:20:17;10.88;;;7.18;;
14945;SDS011;7567;50.916;6.900;2022-10-30T04:22:43;13.60;;;6.65;;
14945;SDS011;7567;50.916;6.900;2022-10-30T04:25:10;12.60;;;6.47;;
14945;SDS011;7567;50.916;6.900;2022-10-30T04:27:39;11.82;;;6.97;;
14945;SDS011;7567;50.916;6.900;2022-10-30T04:30:07;10.80;;;7.07;;
14945;SDS011;7567;50.916;6.900;2022-10-30T04:32:34;12.55;;;7.80;;
14945;SDS011;7567;50.916;6.900;2022-10-30T04:35:00;9.95;;;6.50;;
14945;SDS011;7567;50.916;6.900;2022-10-30T04:37:27;10.02;;;6.88;;
14945;SDS011;7567;50.916;6.900;2022-10-30T04:39:54;10.63;;;6.70;;
14945;SDS011;7567;50.916;6.900;2022-10-30T04:42:19;12.13;;;7.05;;
14945;SDS011;7567;50.916;6.900;2022-10-30T04:44:45;12.40;;;7.80;;
14945;SDS011;7567;50.916;6.900;2022-10-30T04:47:11;9.73;;;7.15;;
14945;SDS011;7567;50.916;6.900;2022-10-30T04:49:37;14.77;;;7.45;;
14945;SDS011;7567;50.916;6.900;2022-10-30T04:52:03;11.95;;;6.95;;
14945;SDS011;7567;50.916;6.900;2022-10-30T04:54:29;13.10;;;6.63;;
14945;SDS011;7567;50.916;6.900;2022-10-30T04:56:55;11.10;;;7.15;;
14945;SDS011;7567;50.916;6.900;2022-10-30T04:59:21;8.25;;;7.05;;
14945;SDS011;7567;50.916;6.900;2022-10-30T05:01:47;10.10;;;6.85;;
14945;SDS011;7567;50.916;6.900;2022-10-30T05:04:13;11.85;;;6.43;;
14945;SDS011;7567;50.916;6.900;2022-10-30T05:06:38;9.32;;;7.22;;
14945;SDS011;7567;50.916;6.900;2022-10-30T05:09:04;9.07;;;7.25;;
14945;SDS011;7567;50.916;6.900;2022-10-30T05:11:30;9.40;;;6.82;;
14945;SDS011;7567;50.916;6.900;2022-10-30T05:13:56;7.07;;;6.18;;
14945;SDS011;7567;50.916;6.900;2022-10-30T05:16:22;12.65;;;7.43;;
14945;SDS011;7567;50.916;6.900;2022-10-30T05:18:48;15.00;;;6.43;;
14945;SDS011;7567;50.916;6.900;2022-10-30T05:21:14;12.23;;;6.95;;
14945;SDS011;7567;50.916;6.900;2022-10-30T05:23:40;8.50;;;6.70;;
14945;SDS011;7567;50.916;6.900;2022-10-30T05:26:06;11.32;;;7.40;;
14945;SDS011;7567;50.916;6.900;2022-10-30T05:28:31;9.70;;;6.90;;
14945;SDS011;7567;50.916;6.900;2022-10-30T05:30:57;10.40;;;6.93;;
14945;SDS011;7567;50.916;6.900;2022-10-30T05:33:23;11.18;;;6.82;;
14945;SDS011;7567;50.916;6.900;2022-10-30T05:35:49;15.23;;;7.55;;
14945;SDS011;7567;50.916;6.900;2022-10-30T05:38:15;9.43;;;6.63;;
14945;SDS011;7567;50.916;6.900;2022-10-30T05:40:41;11.23;;;6.88;;
14945;SDS011;7567;50.916;6.900;2022-10-30T05:43:10;9.80;;;6.60;;
14945;SDS011;7567;50.916;6.900;2022-10-30T05:45:36;12.15;;;7.38;;
14945;SDS011;7567;50.916;6.900;2022-10-30T05:48:03;10.95;;;7.18;;
14945;SDS011;7567;50.916;6.900;2022-10-30T05:50:30;11.02;;;6.40;;
14945;SDS011;7567;50.916;6.900;2022-10-30T05:53:00;9.55;;;7.97;;
14945;SDS011;7567;50.916;6.900;2022-10-30T05:55:27;11.07;;;7.60;;
14945;SDS011;7567;50.916;6.900;2022-10-30T05:58:00;13.10;;;7.30;;
14945;SDS011;7567;50.916;6.900;2022-10-30T06:00:29;12.13;;;7.57;;
14945;SDS011;7567;50.916;6.900;2022-10-30T06:02:59;14.60;;;7.55;;
14945;SDS011;7567;50.916;6.900;2022-10-30T06:05:26;13.27;;;8.43;;
14945;SDS011;7567;50.916;6.900;2022-10-30T06:07:54;12.13;;;7.90;;
14945;SDS011;7567;50.916;6.900;2022-10-30T06:10:21;10.90;;;7.22;;
14945;SDS011;7567;50.916;6.900;2022-10-30T06:12:54;11.82;;;7.32;;
14945;SDS011;7567;50.916;6.900;2022-10-30T06:15:24;10.65;;;7.20;;
14945;SDS011;7567;50.916;6.900;2022-10-30T06:17:51;9.55;;;7.70;;
14945;SDS011;7567;50.916;6.900;2022-10-30T06:20:18;11.15;;;7.20;;
14945;SDS011;7567;50.916;6.900;2022-10-30T06:22:56;9.15;;;7.38;;
14945;SDS011;7567;50.916;6.900;2022-10-30T06:25:27;9.50;;;6.57;;
14945;SDS011;7567;50.916;6.900;2022-10-30T06:27:54;13.32;;;7.53;;
14945;SDS011;7567;50.916;6.900;2022-10-30T06:30:21;10.77;;;7.57;;
14945;SDS011;7567;50.916;6.900;2022-10-30T06:32:47;10.23;;;7.53;;
14945;SDS011;7567;50.916;6.900;2022-10-30T06:35:13;12.60;;;6.60;;
14945;SDS011;7567;50.916;6.900;2022-10-30T06:37:46;10.18;;;7.05;;
14945;SDS011;7567;50.916;6.900;2022-10-30T06:40:13;12.32;;;7.10;;
14945;SDS011;7567;50.916;6.900;2022-10-30T06:42:40;8.57;;;6.90;;
14945;SDS011;7567;50.916;6.900;2022-10-30T06:45:10;11.15;;;7.05;;
14945;SDS011;7567;50.916;6.900;2022-10-30T06:47:37;10.70;;;7.85;;
14945;SDS011;7567;50.916;6.900;2022-10-30T06:50:04;11.00;;;7.03;;
14945;SDS011;7567;50.916;6.900;2022-10-30T06:52:31;11.07;;;6.80;;
14945;SDS011;7567;50.916;6.900;2022-10-30T06:54:57;11.05;;;7.35;;
14945;SDS011;7567;50.916;6.900;2022-10-30T06:57:23;12.13;;;7.03;;
14945;SDS011;7567;50.916;6.900;2022-10-30T06:59:49;11.52;;;6.95;;
14945;SDS011;7567;50.916;6.900;2022-10-30T07:02:15;14.32;;;7.78;;
14945;SDS011;7567;50.916;6.900;2022-10-30T07:04:41;13.63;;;8.45;;
14945;SDS011;7567;50.916;6.900;2022-10-30T07:07:09;13.35;;;7.60;;
14945;SDS011;7567;50.916;6.900;2022-10-30T07:09:39;12.98;;;6.93;;
14945;SDS011;7567;50.916;6.900;2022-10-30T07:12:05;11.35;;;7.70;;
14945;SDS011;7567;50.916;6.900;2022-10-30T07:14:32;11.77;;;7.88;;
14945;SDS011;7567;50.916;6.900;2022-10-30T07:16:59;10.93;;;7.68;;
14945;SDS011;7567;50.916;6.900;2022-10-30T07:19:25;12.18;;;7.43;;
14945;SDS011;7567;50.916;6.900;2022-10-30T07:21:50;8.98;;;6.93;;
14945;SDS011;7567;50.916;6.900;2022-10-30T07:24:16;8.40;;;6.60;;
14945;SDS011;7567;50.916;6.900;2022-10-30T07:26:42;15.80;;;7.70;;
14945;SDS011;7567;50.916;6.900;2022-10-30T07:29:08;11.15;;;7.53;;
14945;SDS011;7567;50.916;6.900;2022-10-30T07:31:34;9.25;;;7.22;;
14945;SDS011;7567;50.916;6.900;2022-10-30T07:34:00;12.27;;;6.55;;
14945;SDS011;7567;50.916;6.900;2022-10-30T07:36:26;9.15;;;6.95;;
14945;SDS011;7567;50.916;6.900;2022-10-30T07:38:52;11.60;;;6.55;;
14945;SDS011;7567;50.916;6.900;2022-10-30T07:41:18;9.10;;;7.60;;
14945;SDS011;7567;50.916;6.900;2022-10-30T07:43:45;10.27;;;7.85;;
14945;SDS011;7567;50.916;6.900;2022-10-30T07:46:12;11.20;;;7.43;;
14945;SDS011;7567;50.916;6.900;2022-10-30T07:48:38;9.80;;;7.68;;
14945;SDS011;7567;50.916;6.900;2022-10-30T07:51:04;10.57;;;7.78;;
14945;SDS011;7567;50.916;6.900;2022-10-30T07:53:31;9.68;;;7.93;;
14945;SDS011;7567;50.916;6.900;2022-10-30T07:55:57;10.30;;;8.38;;
14945;SDS011;7567;50.916;6.900;2022-10-30T07:58:23;12.23;;;9.25;;
14945;SDS011;7567;50.916;6.900;2022-10-30T08:00:49;11.00;;;8.32;;
14945;SDS011;7567;50.916;6.900;2022-10-30T08:03:15;15.52;;;9.35;;
14945;SDS011;7567;50.916;6.900;2022-10-30T08:05:41;18.13;;;10.10;;
14945;SDS011;7567;50.916;6.900;2022-10-30T08:08:07;19.00;;;10.10;;
14945;SDS011;7567;50.916;6.900;2022-10-30T08:10:34;16.08;;;9.20;;
14945;SDS011;7567;50.916;6.900;2022-10-30T08:13:00;13.50;;;9.27;;
14945;SDS011;7567;50.916;6.900;2022-10-30T08:15:26;17.00;;;9.27;;
14945;SDS011;7567;50.916;6.900;2022-10-30T08:17:52;18.25;;;9.88;;
14945;SDS011;7567;50.916;6.900;2022-10-30T08:20:20;12.93;;;9.13;;
14945;SDS011;7567;50.916;6.900;2022-10-30T08:22:51;14.85;;;9.02;;
14945;SDS011;7567;50.916;6.900;2022-10-30T08:25:22;16.55;;;8.63;;
14945;SDS011;7567;50.916;6.900;2022-10-30T08:30:24;10.68;;;7.78;;
14945;SDS011;7567;50.916;6.900;2022-10-30T08:32:59;15.93;;;7.97;;
14945;SDS011;7567;50.916;6.900;2022-10-30T08:35:27;11.10;;;7.70;;
14945;SDS011;7567;50.916;6.900;2022-10-30T08:37:53;15.38;;;7.30;;
14945;SDS011;7567;50.916;6.900;2022-10-30T08:40:23;14.35;;;7.50;;
14945;SDS011;7567;50.916;6.900;2022-10-30T08:42:54;13.98;;;6.55;;
14945;SDS011;7567;50.916;6.900;2022-10-30T08:45:21;14.68;;;7.00;;
14945;SDS011;7567;50.916;6.900;2022-10-30T08:47:55;13.35;;;6.53;;
14945;SDS011;7567;50.916;6.900;2022-10-30T08:50:27;12.52;;;6.40;;
14945;SDS011;7567;50.916;6.900;2022-10-30T08:52:53;13.13;;;7.10;;
14945;SDS011;7567;50.916;6.900;2022-10-30T08:55:19;12.50;;;6.82;;
14945;SDS011;7567;50.916;6.900;2022-10-30T08:57:45;13.43;;;6.55;;
14945;SDS011;7567;50.916;6.900;2022-10-30T09:00:11;13.82;;;6.47;;
14945;SDS011;7567;50.916;6.900;2022-10-30T09:02:38;13.98;;;6.50;;
14945;SDS011;7567;50.916;6.900;2022-10-30T09:05:04;11.32;;;6.65;;
14945;SDS011;7567;50.916;6.900;2022-10-30T09:07:31;8.35;;;5.90;;
14945;SDS011;7567;50.916;6.900;2022-10-30T09:09:57;8.40;;;6.30;;
14945;SDS011;7567;50.916;6.900;2022-10-30T09:12:23;11.98;;;6.65;;
14945;SDS011;7567;50.916;6.900;2022-10-30T09:14:49;16.00;;;6.93;;
14945;SDS011;7567;50.916;6.900;2022-10-30T09:17:15;16.55;;;6.30;;
14945;SDS011;7567;50.916;6.900;2022-10-30T09:19:41;13.38;;;6.53;;
14945;SDS011;7567;50.916;6.900;2022-10-30T09:22:07;8.88;;;6.03;;
14945;SDS011;7567;50.916;6.900;2022-10-30T09:24:33;9.13;;;6.00;;
14945;SDS011;7567;50.916;6.900;2022-10-30T09:26:59;14.40;;;6.55;;
14945;SDS011;7567;50.916;6.900;2022-10-30T09:29:25;10.32;;;5.97;;
14945;SDS011;7567;50.916;6.900;2022-10-30T09:31:51;14.75;;;6.93;;
14945;SDS011;7567;50.916;6.900;2022-10-30T09:34:16;12.93;;;6.68;;
14945;SDS011;7567;50.916;6.900;2022-10-30T09:36:42;12.40;;;6.45;;
14945;SDS011;7567;50.916;6.900;2022-10-30T09:39:10;13.35;;;5.97;;
14945;SDS011;7567;50.916;6.900;2022-10-30T09:44:53;12.23;;;6.28;;
14945;SDS011;7567;50.916;6.900;2022-10-30T09:47:44;17.23;;;6.63;;
14945;SDS011;7567;50.916;6.900;2022-10-30T09:51:00;13.35;;;6.35;;
14945;SDS011;7567;50.916;6.900;2022-10-30T10:07:00;9.88;;;5.93;;
14945;SDS011;7567;50.916;6.900;2022-10-30T10:09:32;17.52;;;6.18;;
14945;SDS011;7567;50.916;6.900;2022-10-30T10:12:01;12.75;;;5.97;;
14945;SDS011;7567;50.916;6.900;2022-10-30T10:14:40;13.35;;;5.70;;
14945;SDS011;7567;50.916;6.900;2022-10-30T10:17:12;10.95;;;5.55;;
14945;SDS011;7567;50.916;6.900;2022-10-30T10:19:51;12.75;;;5.45;;
14945;SDS011;7567;50.916;6.900;2022-10-30T10:22:38;11.98;;;5.65;;
14945;SDS011;7567;50.916;6.900;2022-10-30T10:25:13;9.30;;;5.82;;
14945;SDS011;7567;50.916;6.900;2022-10-30T10:27:51;12.40;;;5.95;;
14945;SDS011;7567;50.916;6.900;2022-10-30T10:30:23;13.38;;;5.93;;
14945;SDS011;7567;50.916;6.900;2022-10-30T10:35:36;14.48;;;6.00;;
14945;SDS011;7567;50.916;6.900;2022-10-30T10:38:22;15.50;;;6.18;;
14945;SDS011;7567;50.916;6.900;2022-10-30T10:49:41;11.88;;;5.35;;
14945;SDS011;7567;50.916;6.900;2022-10-30T10:52:21;12.43;;;5.30;;
14945;SDS011;7567;50.916;6.900;2022-10-30T10:54:54;12.77;;;5.82;;
14945;SDS011;7567;50.916;6.900;2022-10-30T10:57:28;12.00;;;5.30;;
14945;SDS011;7567;50.916;6.900;2022-10-30T11:00:06;11.57;;;5.22;;
14945;SDS011;7567;50.916;6.900;2022-10-30T11:02:42;11.68;;;5.50;;
14945;SDS011;7567;50.916;6.900;2022-10-30T11:05:51;10.50;;;4.88;;
14945;SDS011;7567;50.916;6.900;2022-10-30T11:08:34;14.70;;;5.05;;
14945;SDS011;7567;50.916;6.900;2022-10-30T11:11:02;8.65;;;5.28;;
14945;SDS011;7567;50.916;6.900;2022-10-30T11:13:30;10.38;;;5.40;;
14945;SDS011;7567;50.916;6.900;2022-10-30T11:16:08;9.60;;;5.15;;
14945;SDS011;7567;50.916;6.900;2022-10-30T11:18:47;12.13;;;5.00;;
14945;SDS011;7567;50.916;6.900;2022-10-30T11:21:23;13.10;;;5.53;;
14945;SDS011;7567;50.916;6.900;2022-10-30T11:23:50;8.88;;;4.70;;
14945;SDS011;7567;50.916;6.900;2022-10-30T11:31:17;10.93;;;5.30;;
14945;SDS011;7567;50.916;6.900;2022-10-30T11:33:44;10.80;;;4.65;;
14945;SDS011;7567;50.916;6.900;2022-10-30T11:36:12;11.93;;;5.43;;
14945;SDS011;7567;50.916;6.900;2022-10-30T11:38:40;13.15;;;5.13;;
14945;SDS011;7567;50.916;6.900;2022-10-30T11:41:06;16.90;;;5.50;;
14945;SDS011;7567;50.916;6.900;2022-10-30T11:43:34;13.30;;;4.80;;
14945;SDS011;7567;50.916;6.900;2022-10-30T11:46:02;13.32;;;4.72;;
14945;SDS011;7567;50.916;6.900;2022-10-30T11:48:33;12.95;;;4.85;;
14945;SDS011;7567;50.916;6.900;2022-10-30T11:51:06;9.10;;;5.15;;
14945;SDS011;7567;50.916;6.900;2022-10-30T11:56:11;19.48;;;5.32;;
14945;SDS011;7567;50.916;6.900;2022-10-30T11:58:43;9.88;;;5.03;;
14945;SDS011;7567;50.916;6.900;2022-10-30T12:03:46;13.32;;;5.65;;
14945;SDS011;7567;50.916;6.900;2022-10-30T12:06:20;11.00;;;4.32;;
14945;SDS011;7567;50.916;6.900;2022-10-30T12:09:35;10.88;;;4.65;;
14945;SDS011;7567;50.916;6.900;2022-10-30T12:11:46;10.27;;;4.72;;
14945;SDS011;7567;50.916;6.900;2022-10-30T12:14:19;9.68;;;4.15;;
14945;SDS011;7567;50.916;6.900;2022-10-30T12:16:51;13.50;;;5.20;;
14945;SDS011;7567;50.916;6.900;2022-10-30T12:19:20;10.43;;;4.93;;
14945;SDS011;7567;50.916;6.900;2022-10-30T12:21:49;14.32;;;5.13;;
14945;SDS011;7567;50.916;6.900;2022-10-30T12:24:28;11.88;;;5.07;;
14945;SDS011;7567;50.916;6.900;2022-10-30T12:26:59;9.18;;;4.70;;
14945;SDS011;7567;50.916;6.900;2022-10-30T12:29:40;9.38;;;4.43;;
14945;SDS011;7567;50.916;6.900;2022-10-30T12:32:08;11.02;;;4.85;;
14945;SDS011;7567;50.916;6.900;2022-10-30T12:34:50;7.88;;;4.57;;
14945;SDS011;7567;50.916;6.900;2022-10-30T12:37:33;11.93;;;5.00;;
14945;SDS011;7567;50.916;6.900;2022-10-30T12:40:17;17.65;;;4.97;;
14945;SDS011;7567;50.916;6.900;2022-10-30T12:43:30;19.42;;;5.35;;
14945;SDS011;7567;50.916;6.900;2022-10-30T12:45:51;12.77;;;4.78;;
14945;SDS011;7567;50.916;6.900;2022-10-30T12:48:32;11.80;;;4.75;;
14945;SDS011;7567;50.916;6.900;2022-10-30T12:53:56;16.23;;;5.10;;
14945;SDS011;7567;50.916;6.900;2022-10-30T12:56:46;14.20;;;5.93;;
14945;SDS011;7567;50.916;6.900;2022-10-30T13:01:50;12.68;;;5.38;;
14945;SDS011;7567;50.916;6.900;2022-10-30T13:04:40;10.02;;;5.03;;
14945;SDS011;7567;50.916;6.900;2022-10-30T13:07:17;11.05;;;4.97;;
14945;SDS011;7567;50.916;6.900;2022-10-30T13:12:45;8.90;;;4.72;;
14945;SDS011;7567;50.916;6.900;2022-10-30T13:15:20;14.02;;;5.55;;
14945;SDS011;7567;50.916;6.900;2022-10-30T13:17:53;10.98;;;4.47;;
14945;SDS011;7567;50.916;6.900;2022-10-30T13:20:23;11.25;;;4.38;;
14945;SDS011;7567;50.916;6.900;2022-10-30T13:23:01;7.88;;;4.50;;
14945;SDS011;7567;50.916;6.900;2022-10-30T13:25:41;9.90;;;4.70;;
14945;SDS011;7567;50.916;6.900;2022-10-30T13:28:34;10.57;;;5.20;;
14945;SDS011;7567;50.916;6.900;2022-10-30T13:34:02;14.63;;;4.88;;
14945;SDS011;7567;50.916;6.900;2022-10-30T13:36:31;9.15;;;4.78;;
14945;SDS011;7567;50.916;6.900;2022-10-30T13:39:26;9.65;;;4.50;;
14945;SDS011;7567;50.916;6.900;2022-10-30T13:42:16;10.32;;;4.20;;
14945;SDS011;7567;50.916;6.900;2022-10-30T13:50:57;10.05;;;5.32;;
14945;SDS011;7567;50.916;6.900;2022-10-30T13:53:33;8.40;;;4.65;;
14945;SDS011;7567;50.916;6.900;2022-10-30T13:56:04;13.23;;;4.70;;
14945;SDS011;7567;50.916;6.900;2022-10-30T13:58:34;12.30;;;5.10;;
14945;SDS011;7567;50.916;6.900;2022-10-30T14:01:32;5.72;;;4.03;;
14945;SDS011;7567;50.916;6.900;2022-10-30T14:04:34;8.90;;;4.10;;
14945;SDS011;7567;50.916;6.900;2022-10-30T14:09:45;10.98;;;4.25;;
14945;SDS011;7567;50.916;6.900;2022-10-30T14:15:33;11.32;;;4.65;;
14945;SDS011;7567;50.916;6.900;2022-10-30T14:23:58;9.95;;;4.60;;
14945;SDS011;7567;50.916;6.900;2022-10-30T14:26:45;9.23;;;4.22;;
14945;SDS011;7567;50.916;6.900;2022-10-30T14:31:57;4.88;;;3.63;;
14945;SDS011;7567;50.916;6.900;2022-10-30T14:34:40;7.80;;;4.32;;
14945;SDS011;7567;50.916;6.900;2022-10-30T14:39:48;8.95;;;4.57;;
14945;SDS011;7567;50.916;6.900;2022-10-30T14:47:50;9.00;;;4.80;;
14945;SDS011;7567;50.916;6.900;2022-10-30T15:15:14;7.72;;;4.78;;
14945;SDS011;7567;50.916;6.900;2022-10-30T15:17:43;10.02;;;5.55;;
14945;SDS011;7567;50.916;6.900;2022-10-30T15:20:19;12.43;;;5.43;;
14945;SDS011;7567;50.916;6.900;2022-10-30T15:22:54;14.88;;;6.40;;
14945;SDS011;7567;50.916;6.900;2022-10-30T15:25:22;14.32;;;8.00;;
14945;SDS011;7567;50.916;6.900;2022-10-30T15:27:51;10.02;;;6.30;;
14945;SDS011;7567;50.916;6.900;2022-10-30T15:30:20;13.77;;;6.45;;
14945;SDS011;7567;50.916;6.900;2022-10-30T15:32:48;10.45;;;5.15;;
14945;SDS011;7567;50.916;6.900;2022-10-30T15:35:16;7.72;;;5.35;;
14945;SDS011;7567;50.916;6.900;2022-10-30T15:37:57;10.25;;;4.60;;
14945;SDS011;7567;50.916;6.900;2022-10-30T15:40:28;9.00;;;4.00;;
14945;SDS011;7567;50.916;6.900;2022-10-30T15:42:55;6.07;;;3.97;;
14945;SDS011;7567;50.916;6.900;2022-10-30T15:45:33;7.13;;;3.72;;
14945;SDS011;7567;50.916;6.900;2022-10-30T15:48:10;9.13;;;3.85;;
14945;SDS011;7567;50.916;6.900;2022-10-30T15:50:51;8.30;;;4.00;;
14945;SDS011;7567;50.916;6.900;2022-10-30T15:53:32;7.05;;;3.85;;
14945;SDS011;7567;50.916;6.900;2022-10-30T15:56:01;10.10;;;4.07;;
14945;SDS011;7567;50.916;6.900;2022-10-30T15:58:28;11.60;;;3.47;;
14945;SDS011;7567;50.916;6.900;2022-10-30T16:00:59;6.60;;;3.67;;
14945;SDS011;7567;50.916;6.900;2022-10-30T16:03:26;10.43;;;3.97;;
14945;SDS011;7567;50.916;6.900;2022-10-30T16:08:47;8.50;;;3.70;;
14945;SDS011;7567;50.916;6.900;2022-10-30T16:11:13;7.05;;;3.90;;
14945;SDS011;7567;50.916;6.900;2022-10-30T16:13:40;6.65;;;3.60;;
14945;SDS011;7567;50.916;6.900;2022-10-30T16:16:28;6.20;;;4.05;;
14945;SDS011;7567;50.916;6.900;2022-10-30T16:18:57;8.77;;;4.63;;
14945;SDS011;7567;50.916;6.900;2022-10-30T16:21:26;6.20;;;3.95;;
14945;SDS011;7567;50.916;6.900;2022-10-30T16:24:00;8.60;;;3.78;;
14945;SDS011;7567;50.916;6.900;2022-10-30T16:26:35;8.32;;;4.00;;
14945;SDS011;7567;50.916;6.900;2022-10-30T16:31:37;8.50;;;3.60;;
14945;SDS011;7567;50.916;6.900;2022-10-30T16:34:07;7.03;;;4.15;;
14945;SDS011;7567;50.916;6.900;2022-10-30T16:36:38;8.40;;;4.57;;
14945;SDS011;7567;50.916;6.900;2022-10-30T16:39:05;9.73;;;4.28;;
14945;SDS011;7567;50.916;6.900;2022-10-30T16:41:33;6.88;;;3.83;;
14945;SDS011;7567;50.916;6.900;2022-10-30T16:44:09;6.65;;;4.13;;
14945;SDS011;7567;50.916;6.900;2022-10-30T16:49:23;8.05;;;4.10;;
14945;SDS011;7567;50.916;6.900;2022-10-30T16:51:56;7.93;;;4.70;;
14945;SDS011;7567;50.916;6.900;2022-10-30T16:54:30;9.63;;;5.72;;
14945;SDS011;7567;50.916;6.900;2022-10-30T16:57:00;13.02;;;9.45;;
14945;SDS011;7567;50.916;6.900;2022-10-30T16:59:31;17.65;;;14.38;;
14945;SDS011;7567;50.916;6.900;2022-10-30T17:02:00;16.80;;;11.50;;
14945;SDS011;7567;50.916;6.900;2022-10-30T17:04:30;31.05;;;24.42;;
14945;SDS011;7567;50.916;6.900;2022-10-30T17:07:02;31.58;;;27.20;;
14945;SDS011;7567;50.916;6.900;2022-10-30T17:09:33;31.33;;;24.05;;
14945;SDS011;7567;50.916;6.900;2022-10-30T17:14:43;33.42;;;23.85;;
14945;SDS011;7567;50.916;6.900;2022-10-30T17:17:21;30.40;;;23.90;;
14945;SDS011;7567;50.916;6.900;2022-10-30T17:19:48;26.10;;;21.23;;
14945;SDS011;7567;50.916;6.900;2022-10-30T17:22:19;21.73;;;18.58;;
14945;SDS011;7567;50.916;6.900;2022-10-30T17:24:46;21.77;;;18.40;;
14945;SDS011;7567;50.916;6.900;2022-10-30T17:27:26;19.05;;;15.00;;
14945;SDS011;7567;50.916;6.900;2022-10-30T17:30:26;21.98;;;14.13;;